createdAt,value
2023-03-16T00:01:45.835Z,6.03
2023-03-16T00:06:48.547Z,5.97
2023-03-16T00:11:51.261Z,5.80
2023-03-16T00:16:55.316Z,5.96
2023-03-16T00:21:58.250Z,5.78
2023-03-16T00:27:01.020Z,5.83
2023-03-16T00:32:05.603Z,6.14
2023-03-16T00:37:08.563Z,5.97
2023-03-16T00:42:12.488Z,6.08
2023-03-16T00:47:16.643Z,6.04
2023-03-16T00:52:20.067Z,5.97
2023-03-16T00:57:25.102Z,5.80
2023-03-16T01:02:29.263Z,5.97
2023-03-16T01:07:32.301Z,6.06
2023-03-16T01:12:35.195Z,6.01
2023-03-16T01:17:39.337Z,5.73
2023-03-16T01:22:42.274Z,5.54
2023-03-16T01:27:45.570Z,5.54
2023-03-16T01:32:49.795Z,5.72
2023-03-16T01:37:52.560Z,5.71
2023-03-16T01:43:02.860Z,5.78
2023-03-16T01:48:10.285Z,5.79
2023-03-16T01:53:13.297Z,5.93
2023-03-16T01:58:16.664Z,5.95
2023-03-16T02:03:22.587Z,5.82
2023-03-16T02:08:31.897Z,5.54
2023-03-16T02:13:36.824Z,5.69
2023-03-16T02:18:41.944Z,5.80
2023-03-16T02:23:46.297Z,5.61
2023-03-16T02:28:59.419Z,5.58
2023-03-16T02:34:04.843Z,5.79
2023-03-16T02:39:08.107Z,5.86
2023-03-16T02:44:26.122Z,5.67
2023-03-16T02:49:37.508Z,5.59
2023-03-16T02:54:40.722Z,5.95
2023-03-16T02:59:45.258Z,6.06
2023-03-16T03:04:49.490Z,5.85
2023-03-16T03:09:53.566Z,5.58
2023-03-16T03:14:57.289Z,5.33
2023-03-16T03:20:07.863Z,5.41
2023-03-16T03:25:10.905Z,5.41
2023-03-16T03:30:16.616Z,5.49
2023-03-16T03:35:21.544Z,5.45
2023-03-16T03:40:24.676Z,5.28
2023-03-16T03:45:34.042Z,5.41
2023-03-16T03:50:40.519Z,5.15
2023-03-16T03:56:00.795Z,5.40
2023-03-16T04:01:03.599Z,5.64
2023-03-16T04:06:09.812Z,5.68
2023-03-16T04:11:12.722Z,5.45
2023-03-16T04:16:17.186Z,5.30
2023-03-16T04:21:25.670Z,5.42
2023-03-16T04:26:28.433Z,5.52
2023-03-16T04:31:31.290Z,5.58
2023-03-16T04:36:35.682Z,5.35
2023-03-16T04:41:38.701Z,5.30
2023-03-16T04:46:53.576Z,5.23
2023-03-16T04:51:59.549Z,5.38
2023-03-16T04:57:03.580Z,5.53
2023-03-16T05:02:16.951Z,5.77
2023-03-16T05:07:21.447Z,5.62
2023-03-16T05:12:29.025Z,5.38
2023-03-16T05:17:36.520Z,5.40
2023-03-16T05:22:44.008Z,5.29
2023-03-16T05:27:54.954Z,4.90
2023-03-16T05:33:21.570Z,5.34
2023-03-16T05:38:29.800Z,5.63
2023-03-16T05:43:34.332Z,5.67
2023-03-16T05:48:37.968Z,5.65
2023-03-16T05:53:46.716Z,5.53
2023-03-16T05:58:58.346Z,5.27
2023-03-16T06:04:03.096Z,5.11
2023-03-16T06:09:11.207Z,5.70
2023-03-16T06:14:14.897Z,5.85
2023-03-16T06:19:18.382Z,6.21
2023-03-16T06:24:25.333Z,6.30
2023-03-16T06:29:28.618Z,5.92
2023-03-16T06:34:31.747Z,5.99
2023-03-16T06:39:36.222Z,6.18
2023-03-16T06:44:39.179Z,6.66
2023-03-16T06:49:46.888Z,5.92
2023-03-16T06:54:58.163Z,6.14
2023-03-16T07:00:03.934Z,6.54
2023-03-16T07:05:07.529Z,7.36
2023-03-16T07:10:14.563Z,9.06
2023-03-16T07:15:17.558Z,9.95
2023-03-16T07:20:23.514Z,11.88
2023-03-16T07:25:27.950Z,12.52
2023-03-16T07:30:31.248Z,13.10
2023-03-16T07:35:34.571Z,12.01
2023-03-16T07:40:39.285Z,11.47
2023-03-16T07:45:50.452Z,11.58
2023-03-16T07:50:55.189Z,11.26
2023-03-16T07:56:00.490Z,9.72
2023-03-16T08:01:04.109Z,10.14
2023-03-16T08:06:07.554Z,9.80
2023-03-16T08:11:12.890Z,9.63
2023-03-16T08:16:26.460Z,9.40
2023-03-16T08:21:30.258Z,9.24
2023-03-16T08:26:34.835Z,9.40
2023-03-16T08:31:39.545Z,9.57
2023-03-16T08:36:47.543Z,8.87
2023-03-16T08:41:52.088Z,9.01
2023-03-16T08:47:02.497Z,9.27
2023-03-16T08:52:06.260Z,9.69
2023-03-16T08:57:11.001Z,9.76
2023-03-16T09:02:15.085Z,10.06
2023-03-16T09:07:18.708Z,10.68
2023-03-16T09:12:23.441Z,11.00
2023-03-16T09:17:26.995Z,11.01
2023-03-16T09:22:30.093Z,11.03
2023-03-16T09:27:35.044Z,11.60
2023-03-16T09:32:38.321Z,11.83
2023-03-16T09:37:45.625Z,12.00
2023-03-16T09:43:20.037Z,12.43
2023-03-16T09:48:25.141Z,11.99
2023-03-16T09:53:31.271Z,12.14
2023-03-16T09:58:36.550Z,12.78
2023-03-16T10:04:03.085Z,13.68
2023-03-16T10:09:19.122Z,14.20
2023-03-16T10:14:28.317Z,13.62
2023-03-16T10:19:38.417Z,13.77
2023-03-16T10:24:48.523Z,14.25
2023-03-16T10:29:52.680Z,13.37
2023-03-16T10:34:59.284Z,13.57
2023-03-16T10:40:05.038Z,13.00
2023-03-16T10:45:23.785Z,13.99
2023-03-16T10:50:27.695Z,14.63
2023-03-16T10:55:35.131Z,13.53
2023-03-16T11:00:45.362Z,13.80
2023-03-16T11:05:48.111Z,13.45
2023-03-16T11:10:58.671Z,14.24
2023-03-16T11:16:07.867Z,13.84
2023-03-16T11:21:18.354Z,14.00
2023-03-16T11:26:27.711Z,14.15
2023-03-16T11:31:43.388Z,13.85
2023-03-16T11:36:51.623Z,14.05
2023-03-16T11:42:04.964Z,13.44
2023-03-16T11:47:30.055Z,13.49
2023-03-16T11:52:46.832Z,13.92
2023-03-16T11:58:01.355Z,13.56
2023-03-16T12:03:45.829Z,14.62
2023-03-16T12:09:08.906Z,14.35
2023-03-16T12:14:21.717Z,13.76
2023-03-16T12:19:33.600Z,14.25
2023-03-16T12:24:42.446Z,14.00
2023-03-16T12:29:56.862Z,13.76
2023-03-16T12:35:07.365Z,13.94
2023-03-16T12:40:25.957Z,13.69
2023-03-16T12:45:35.134Z,13.14
2023-03-16T12:50:50.466Z,13.46
2023-03-16T12:55:53.509Z,13.37
2023-03-16T13:00:59.154Z,13.21
2023-03-16T13:06:03.536Z,13.52
2023-03-16T13:11:09.558Z,14.25
2023-03-16T13:16:25.129Z,13.87
2023-03-16T13:21:41.658Z,14.30
2023-03-16T13:26:48.131Z,14.58
2023-03-16T13:31:52.426Z,14.11
2023-03-16T13:36:58.777Z,14.69
2023-03-16T13:42:05.037Z,13.98
2023-03-16T13:47:08.643Z,13.73
2023-03-16T13:52:20.750Z,13.88
2023-03-16T13:57:25.971Z,13.74
2023-03-16T14:02:29.184Z,13.87
2023-03-16T14:07:38.153Z,13.74
2023-03-16T14:12:52.439Z,13.24
2023-03-16T14:18:03.433Z,13.26
2023-03-16T14:23:18.502Z,13.50
2023-03-16T14:28:28.070Z,14.16
2023-03-16T14:33:32.505Z,14.32
2023-03-16T14:38:38.188Z,13.77
2023-03-16T14:43:47.730Z,13.77
2023-03-16T14:48:50.504Z,14.39
2023-03-16T14:53:54.579Z,13.83
2023-03-16T14:58:57.307Z,14.29
2023-03-16T15:04:00.051Z,14.06
2023-03-16T15:09:04.346Z,13.67
2023-03-16T15:14:35.357Z,13.77
2023-03-16T15:19:38.202Z,13.28
2023-03-16T15:24:42.505Z,13.79
2023-03-16T15:29:45.249Z,13.39
2023-03-16T15:34:48.018Z,13.89
2023-03-16T15:39:52.306Z,13.18
2023-03-16T15:44:55.283Z,13.42
2023-03-16T15:49:58.000Z,13.50
2023-03-16T15:55:07.659Z,13.45
2023-03-16T16:00:34.948Z,13.93
2023-03-16T16:05:37.814Z,13.55
2023-03-16T16:10:43.085Z,13.53
2023-03-16T16:15:47.174Z,13.06
2023-03-16T16:20:51.349Z,13.10
2023-03-16T16:25:58.501Z,12.97
2023-03-16T16:31:02.431Z,12.90
2023-03-16T16:36:07.470Z,12.73
2023-03-16T16:41:25.140Z,12.75
2023-03-16T16:46:29.621Z,12.71
2023-03-16T16:51:33.151Z,12.68
2023-03-16T16:56:38.608Z,12.50
2023-03-16T17:01:41.883Z,12.48
2023-03-16T17:06:44.947Z,12.28
2023-03-16T17:11:49.394Z,12.27
2023-03-16T17:16:53.350Z,12.25
2023-03-16T17:21:58.376Z,12.34
2023-03-16T17:27:04.542Z,12.14
2023-03-16T17:32:19.268Z,12.16
2023-03-16T17:37:23.199Z,12.01
2023-03-16T17:42:27.465Z,12.19
2023-03-16T17:47:33.155Z,11.88
2023-03-16T17:52:37.154Z,11.98
2023-03-16T17:57:41.434Z,11.88
2023-03-16T18:02:50.595Z,11.86
2023-03-16T18:07:54.542Z,12.01
2023-03-16T18:13:02.454Z,12.04
2023-03-16T18:18:07.771Z,11.68
2023-03-16T18:23:16.370Z,11.46
2023-03-16T18:28:21.825Z,11.59
2023-03-16T18:33:28.600Z,11.87
2023-03-16T18:38:33.695Z,11.69
2023-03-16T18:43:37.796Z,11.26
2023-03-16T18:48:40.633Z,11.46
2023-03-16T18:53:44.057Z,11.88
2023-03-16T18:58:48.582Z,11.56
2023-03-16T19:03:52.325Z,11.59
2023-03-16T19:08:55.863Z,11.22
2023-03-16T19:14:00.205Z,11.46
2023-03-16T19:19:03.257Z,11.30
2023-03-16T19:24:08.393Z,11.60
2023-03-16T19:29:15.885Z,11.35
2023-03-16T19:34:19.113Z,11.35
2023-03-16T19:39:21.972Z,10.98
2023-03-16T19:44:28.482Z,11.61
2023-03-16T19:49:31.733Z,10.96
2023-03-16T19:54:35.088Z,11.23
2023-03-16T19:59:39.407Z,11.29
2023-03-16T20:04:42.257Z,11.28
2023-03-16T20:09:45.339Z,11.40
2023-03-16T20:14:51.453Z,11.24
2023-03-16T20:19:54.294Z,11.47
2023-03-16T20:24:57.998Z,11.45
2023-03-16T20:30:02.823Z,11.01
2023-03-16T20:35:14.565Z,10.81
2023-03-16T20:40:18.518Z,11.07
2023-03-16T20:45:25.698Z,11.05
2023-03-16T20:50:31.421Z,10.48
2023-03-16T20:55:34.270Z,10.10
2023-03-16T21:00:40.365Z,10.38
2023-03-16T21:05:43.340Z,10.75
2023-03-16T21:10:48.514Z,10.75
2023-03-16T21:15:53.392Z,10.09
2023-03-16T21:20:56.996Z,10.27
2023-03-16T21:26:03.662Z,9.99
2023-03-16T21:31:08.396Z,10.51
2023-03-16T21:36:15.756Z,10.24
2023-03-16T21:41:18.650Z,10.43
2023-03-16T21:46:25.488Z,10.42
2023-03-16T21:51:31.336Z,10.49
2023-03-16T21:56:34.212Z,10.52
2023-03-16T22:01:50.949Z,10.38
2023-03-16T22:06:57.372Z,10.47
2023-03-16T22:12:00.382Z,10.63
2023-03-16T22:17:05.387Z,10.72
2023-03-16T22:22:14.161Z,10.65
2023-03-16T22:27:21.949Z,10.54
2023-03-16T22:32:26.127Z,11.00
2023-03-16T22:37:29.941Z,10.95
2023-03-16T22:42:35.810Z,10.95
2023-03-16T22:47:40.040Z,10.77
2023-03-16T22:52:43.537Z,10.61
2023-03-16T22:57:47.548Z,10.66
2023-03-16T23:02:51.735Z,10.67
2023-03-16T23:07:55.534Z,10.22
2023-03-16T23:13:00.517Z,10.62
2023-03-16T23:18:05.146Z,10.88
2023-03-16T23:23:07.851Z,10.69
2023-03-16T23:28:13.204Z,10.87
2023-03-16T23:33:17.618Z,10.66
2023-03-16T23:38:21.149Z,10.71
2023-03-16T23:43:23.876Z,10.82
2023-03-16T23:48:28.085Z,10.98
2023-03-16T23:53:31.097Z,10.66
2023-03-16T23:58:33.867Z,10.38
